sensor_id;sensor_type;location;lat;lon;timestamp;P1;durP1;ratioP1;P2;durP2;ratioP2
76631;SDS011;65526;48.578;-4.520;2023-05-17T00:00:11;2.13;;;1.20;;
76631;SDS011;65526;48.578;-4.520;2023-05-17T00:02:38;2.95;;;1.20;;
76631;SDS011;65526;48.578;-4.520;2023-05-17T00:05:05;1.83;;;0.82;;
76631;SDS011;65526;48.578;-4.520;2023-05-17T00:07:31;5.13;;;1.05;;
76631;SDS011;65526;48.578;-4.520;2023-05-17T00:09:58;2.10;;;1.00;;
76631;SDS011;65526;48.578;-4.520;2023-05-17T00:12:24;5.22;;;1.33;;
76631;SDS011;65526;48.578;-4.520;2023-05-17T00:14:51;2.72;;;1.17;;
76631;SDS011;65526;48.578;-4.520;2023-05-17T00:17:18;8.05;;;2.45;;
76631;SDS011;65526;48.578;-4.520;2023-05-17T00:19:44;4.07;;;1.25;;
76631;SDS011;65526;48.578;-4.520;2023-05-17T00:22:11;7.22;;;1.23;;
76631;SDS011;65526;48.578;-4.520;2023-05-17T00:24:37;6.10;;;1.40;;
76631;SDS011;65526;48.578;-4.520;2023-05-17T00:27:04;4.53;;;1.23;;
76631;SDS011;65526;48.578;-4.520;2023-05-17T00:29:30;8.60;;;1.45;;
76631;SDS011;65526;48.578;-4.520;2023-05-17T00:31:57;5.05;;;1.20;;
76631;SDS011;65526;48.578;-4.520;2023-05-17T00:34:23;3.63;;;0.90;;
76631;SDS011;65526;48.578;-4.520;2023-05-17T00:36:49;4.22;;;1.70;;
76631;SDS011;65526;48.578;-4.520;2023-05-17T00:39:16;7.95;;;1.13;;
76631;SDS011;65526;48.578;-4.520;2023-05-17T00:41:42;6.10;;;1.27;;
76631;SDS011;65526;48.578;-4.520;2023-05-17T00:44:09;3.58;;;1.20;;
76631;SDS011;65526;48.578;-4.520;2023-05-17T00:46:35;8.02;;;1.45;;
76631;SDS011;65526;48.578;-4.520;2023-05-17T00:49:01;6.20;;;1.23;;
76631;SDS011;65526;48.578;-4.520;2023-05-17T00:51:28;8.07;;;1.80;;
76631;SDS011;65526;48.578;-4.520;2023-05-17T00:53:56;5.38;;;1.50;;
76631;SDS011;65526;48.578;-4.520;2023-05-17T00:56:22;4.47;;;1.60;;
76631;SDS011;65526;48.578;-4.520;2023-05-17T00:58:50;5.22;;;1.13;;
76631;SDS011;65526;48.578;-4.520;2023-05-17T01:01:17;6.40;;;1.40;;
76631;SDS011;65526;48.578;-4.520;2023-05-17T01:03:44;8.43;;;1.42;;
76631;SDS011;65526;48.578;-4.520;2023-05-17T01:06:12;5.20;;;1.27;;
76631;SDS011;65526;48.578;-4.520;2023-05-17T01:08:39;3.10;;;1.75;;
76631;SDS011;65526;48.578;-4.520;2023-05-17T01:11:15;5.45;;;1.17;;
76631;SDS011;65526;48.578;-4.520;2023-05-17T01:16:44;4.70;;;1.10;;
76631;SDS011;65526;48.578;-4.520;2023-05-17T01:22:19;3.53;;;1.30;;
76631;SDS011;65526;48.578;-4.520;2023-05-17T01:25:03;6.78;;;1.30;;
76631;SDS011;65526;48.578;-4.520;2023-05-17T01:27:39;7.07;;;2.03;;
76631;SDS011;65526;48.578;-4.520;2023-05-17T01:30:08;4.93;;;1.27;;
76631;SDS011;65526;48.578;-4.520;2023-05-17T01:32:41;6.65;;;1.20;;
76631;SDS011;65526;48.578;-4.520;2023-05-17T01:35:11;3.40;;;1.23;;
76631;SDS011;65526;48.578;-4.520;2023-05-17T01:37:38;4.82;;;1.52;;
76631;SDS011;65526;48.578;-4.520;2023-05-17T01:40:04;4.90;;;1.23;;
76631;SDS011;65526;48.578;-4.520;2023-05-17T01:42:33;5.40;;;1.27;;
76631;SDS011;65526;48.578;-4.520;2023-05-17T01:45:05;6.53;;;1.30;;
76631;SDS011;65526;48.578;-4.520;2023-05-17T01:50:27;4.82;;;1.33;;
76631;SDS011;65526;48.578;-4.520;2023-05-17T01:58:05;5.95;;;1.55;;
76631;SDS011;65526;48.578;-4.520;2023-05-17T02:00:33;3.00;;;1.00;;
76631;SDS011;65526;48.578;-4.520;2023-05-17T02:03:01;5.10;;;1.50;;
76631;SDS011;65526;48.578;-4.520;2023-05-17T02:05:27;3.22;;;1.23;;
76631;SDS011;65526;48.578;-4.520;2023-05-17T02:07:54;8.80;;;2.22;;
76631;SDS011;65526;48.578;-4.520;2023-05-17T02:10:21;9.20;;;2.10;;
76631;SDS011;65526;48.578;-4.520;2023-05-17T02:12:47;6.32;;;1.63;;
76631;SDS011;65526;48.578;-4.520;2023-05-17T02:15:14;11.95;;;1.80;;
76631;SDS011;65526;48.578;-4.520;2023-05-17T02:17:41;6.57;;;1.52;;
76631;SDS011;65526;48.578;-4.520;2023-05-17T02:20:07;8.85;;;2.30;;
76631;SDS011;65526;48.578;-4.520;2023-05-17T02:22:35;10.27;;;1.60;;
76631;SDS011;65526;48.578;-4.520;2023-05-17T02:25:02;4.97;;;1.83;;
76631;SDS011;65526;48.578;-4.520;2023-05-17T02:27:28;5.30;;;1.30;;
76631;SDS011;65526;48.578;-4.520;2023-05-17T02:29:54;6.30;;;1.25;;
76631;SDS011;65526;48.578;-4.520;2023-05-17T02:32:21;6.80;;;1.70;;
76631;SDS011;65526;48.578;-4.520;2023-05-17T02:34:47;4.82;;;1.83;;
76631;SDS011;65526;48.578;-4.520;2023-05-17T02:37:14;4.57;;;1.90;;
76631;SDS011;65526;48.578;-4.520;2023-05-17T02:39:42;5.82;;;1.50;;
76631;SDS011;65526;48.578;-4.520;2023-05-17T02:42:09;8.30;;;1.60;;
76631;SDS011;65526;48.578;-4.520;2023-05-17T02:44:36;4.07;;;1.70;;
76631;SDS011;65526;48.578;-4.520;2023-05-17T02:47:02;8.00;;;1.88;;
76631;SDS011;65526;48.578;-4.520;2023-05-17T02:49:29;7.28;;;2.22;;
76631;SDS011;65526;48.578;-4.520;2023-05-17T02:51:55;6.50;;;1.55;;
76631;SDS011;65526;48.578;-4.520;2023-05-17T02:54:22;6.70;;;1.83;;
76631;SDS011;65526;48.578;-4.520;2023-05-17T02:56:48;7.38;;;1.65;;
76631;SDS011;65526;48.578;-4.520;2023-05-17T02:59:16;7.20;;;1.95;;
76631;SDS011;65526;48.578;-4.520;2023-05-17T03:01:43;8.93;;;1.70;;
76631;SDS011;65526;48.578;-4.520;2023-05-17T03:04:09;9.35;;;1.80;;
76631;SDS011;65526;48.578;-4.520;2023-05-17T03:06:36;6.65;;;1.70;;
76631;SDS011;65526;48.578;-4.520;2023-05-17T03:09:03;11.13;;;3.10;;
76631;SDS011;65526;48.578;-4.520;2023-05-17T03:11:29;7.40;;;1.63;;
76631;SDS011;65526;48.578;-4.520;2023-05-17T03:13:57;7.43;;;2.10;;
76631;SDS011;65526;48.578;-4.520;2023-05-17T03:16:26;9.25;;;2.05;;
76631;SDS011;65526;48.578;-4.520;2023-05-17T03:18:53;8.25;;;2.25;;
76631;SDS011;65526;48.578;-4.520;2023-05-17T03:21:19;9.43;;;2.10;;
76631;SDS011;65526;48.578;-4.520;2023-05-17T03:23:47;10.18;;;2.13;;
76631;SDS011;65526;48.578;-4.520;2023-05-17T03:26:14;6.50;;;2.00;;
76631;SDS011;65526;48.578;-4.520;2023-05-17T03:28:46;5.22;;;1.33;;
76631;SDS011;65526;48.578;-4.520;2023-05-17T03:31:13;5.65;;;1.55;;
76631;SDS011;65526;48.578;-4.520;2023-05-17T03:33:39;9.48;;;1.92;;
76631;SDS011;65526;48.578;-4.520;2023-05-17T03:36:06;6.32;;;1.80;;
76631;SDS011;65526;48.578;-4.520;2023-05-17T03:38:33;5.70;;;1.90;;
76631;SDS011;65526;48.578;-4.520;2023-05-17T03:40:59;5.22;;;1.65;;
76631;SDS011;65526;48.578;-4.520;2023-05-17T03:43:26;11.02;;;2.42;;
76631;SDS011;65526;48.578;-4.520;2023-05-17T03:45:54;6.63;;;2.05;;
76631;SDS011;65526;48.578;-4.520;2023-05-17T03:48:20;4.57;;;2.00;;
76631;SDS011;65526;48.578;-4.520;2023-05-17T03:50:47;5.40;;;1.40;;
76631;SDS011;65526;48.578;-4.520;2023-05-17T03:53:14;3.00;;;1.52;;
76631;SDS011;65526;48.578;-4.520;2023-05-17T03:55:42;5.25;;;1.65;;
76631;SDS011;65526;48.578;-4.520;2023-05-17T03:58:15;9.93;;;2.33;;
76631;SDS011;65526;48.578;-4.520;2023-05-17T04:00:42;5.45;;;1.95;;
76631;SDS011;65526;48.578;-4.520;2023-05-17T04:03:13;8.52;;;1.85;;
76631;SDS011;65526;48.578;-4.520;2023-05-17T04:05:40;6.88;;;2.00;;
76631;SDS011;65526;48.578;-4.520;2023-05-17T04:08:07;4.45;;;1.83;;
76631;SDS011;65526;48.578;-4.520;2023-05-17T04:10:34;6.65;;;2.20;;
76631;SDS011;65526;48.578;-4.520;2023-05-17T04:13:00;4.35;;;1.70;;
76631;SDS011;65526;48.578;-4.520;2023-05-17T04:15:27;5.38;;;2.13;;
76631;SDS011;65526;48.578;-4.520;2023-05-17T04:17:53;4.28;;;1.63;;
76631;SDS011;65526;48.578;-4.520;2023-05-17T04:20:20;5.65;;;1.85;;
76631;SDS011;65526;48.578;-4.520;2023-05-17T04:22:47;5.05;;;1.70;;
76631;SDS011;65526;48.578;-4.520;2023-05-17T04:25:14;6.78;;;1.67;;
76631;SDS011;65526;48.578;-4.520;2023-05-17T04:27:40;5.70;;;1.70;;
76631;SDS011;65526;48.578;-4.520;2023-05-17T04:30:08;5.82;;;2.20;;
76631;SDS011;65526;48.578;-4.520;2023-05-17T04:32:35;5.95;;;2.10;;
76631;SDS011;65526;48.578;-4.520;2023-05-17T04:35:02;6.38;;;2.10;;
76631;SDS011;65526;48.578;-4.520;2023-05-17T04:37:29;6.70;;;2.17;;
76631;SDS011;65526;48.578;-4.520;2023-05-17T04:40:00;7.95;;;2.03;;
76631;SDS011;65526;48.578;-4.520;2023-05-17T04:42:29;9.07;;;2.47;;
76631;SDS011;65526;48.578;-4.520;2023-05-17T04:44:58;4.97;;;2.00;;
76631;SDS011;65526;48.578;-4.520;2023-05-17T04:47:26;5.00;;;1.80;;
76631;SDS011;65526;48.578;-4.520;2023-05-17T04:49:52;7.20;;;2.03;;
76631;SDS011;65526;48.578;-4.520;2023-05-17T04:52:19;5.57;;;1.55;;
76631;SDS011;65526;48.578;-4.520;2023-05-17T04:54:46;3.65;;;1.70;;
76631;SDS011;65526;48.578;-4.520;2023-05-17T04:57:12;7.25;;;2.00;;
76631;SDS011;65526;48.578;-4.520;2023-05-17T04:59:50;9.98;;;2.00;;
76631;SDS011;65526;48.578;-4.520;2023-05-17T05:02:16;5.20;;;1.75;;
76631;SDS011;65526;48.578;-4.520;2023-05-17T05:04:43;5.85;;;2.20;;
76631;SDS011;65526;48.578;-4.520;2023-05-17T05:07:11;9.00;;;1.95;;
76631;SDS011;65526;48.578;-4.520;2023-05-17T05:09:37;8.88;;;2.00;;
76631;SDS011;65526;48.578;-4.520;2023-05-17T05:12:04;7.35;;;2.08;;
76631;SDS011;65526;48.578;-4.520;2023-05-17T05:14:32;4.45;;;2.33;;
76631;SDS011;65526;48.578;-4.520;2023-05-17T05:16:59;8.57;;;3.00;;
76631;SDS011;65526;48.578;-4.520;2023-05-17T05:19:26;6.35;;;2.38;;
76631;SDS011;65526;48.578;-4.520;2023-05-17T05:21:54;8.82;;;2.70;;
76631;SDS011;65526;48.578;-4.520;2023-05-17T05:24:20;6.32;;;2.03;;
76631;SDS011;65526;48.578;-4.520;2023-05-17T05:26:47;6.18;;;2.58;;
76631;SDS011;65526;48.578;-4.520;2023-05-17T05:29:17;6.78;;;2.03;;
76631;SDS011;65526;48.578;-4.520;2023-05-17T05:31:43;4.43;;;2.17;;
76631;SDS011;65526;48.578;-4.520;2023-05-17T05:34:10;6.85;;;2.58;;
76631;SDS011;65526;48.578;-4.520;2023-05-17T05:36:37;7.15;;;2.28;;
76631;SDS011;65526;48.578;-4.520;2023-05-17T05:39:03;6.90;;;2.17;;
76631;SDS011;65526;48.578;-4.520;2023-05-17T05:41:31;6.07;;;1.83;;
76631;SDS011;65526;48.578;-4.520;2023-05-17T05:43:58;5.30;;;2.60;;
76631;SDS011;65526;48.578;-4.520;2023-05-17T05:46:25;7.55;;;2.28;;
76631;SDS011;65526;48.578;-4.520;2023-05-17T05:48:52;5.32;;;2.33;;
76631;SDS011;65526;48.578;-4.520;2023-05-17T05:51:19;8.23;;;2.50;;
76631;SDS011;65526;48.578;-4.520;2023-05-17T05:53:45;12.05;;;3.95;;
76631;SDS011;65526;48.578;-4.520;2023-05-17T05:56:11;6.35;;;2.92;;
76631;SDS011;65526;48.578;-4.520;2023-05-17T05:58:38;13.30;;;4.07;;
76631;SDS011;65526;48.578;-4.520;2023-05-17T06:01:05;7.93;;;2.88;;
76631;SDS011;65526;48.578;-4.520;2023-05-17T06:03:31;11.77;;;3.20;;
76631;SDS011;65526;48.578;-4.520;2023-05-17T06:05:58;6.72;;;2.58;;
76631;SDS011;65526;48.578;-4.520;2023-05-17T06:08:24;8.43;;;2.75;;
76631;SDS011;65526;48.578;-4.520;2023-05-17T06:10:50;6.20;;;2.38;;
76631;SDS011;65526;48.578;-4.520;2023-05-17T06:13:17;5.72;;;2.50;;
76631;SDS011;65526;48.578;-4.520;2023-05-17T06:15:43;8.15;;;2.78;;
76631;SDS011;65526;48.578;-4.520;2023-05-17T06:18:10;11.95;;;3.67;;
76631;SDS011;65526;48.578;-4.520;2023-05-17T06:20:36;10.68;;;3.22;;
76631;SDS011;65526;48.578;-4.520;2023-05-17T06:23:02;4.80;;;2.30;;
76631;SDS011;65526;48.578;-4.520;2023-05-17T06:25:29;7.65;;;2.70;;
76631;SDS011;65526;48.578;-4.520;2023-05-17T06:27:56;10.18;;;3.35;;
76631;SDS011;65526;48.578;-4.520;2023-05-17T06:30:22;6.38;;;2.85;;
76631;SDS011;65526;48.578;-4.520;2023-05-17T06:32:48;8.77;;;3.45;;
76631;SDS011;65526;48.578;-4.520;2023-05-17T06:35:15;14.63;;;3.75;;
76631;SDS011;65526;48.578;-4.520;2023-05-17T06:37:41;13.35;;;4.82;;
76631;SDS011;65526;48.578;-4.520;2023-05-17T06:40:08;7.88;;;3.22;;
76631;SDS011;65526;48.578;-4.520;2023-05-17T06:42:35;13.68;;;4.43;;
76631;SDS011;65526;48.578;-4.520;2023-05-17T06:45:01;8.40;;;3.17;;
76631;SDS011;65526;48.578;-4.520;2023-05-17T06:47:28;8.80;;;3.90;;
76631;SDS011;65526;48.578;-4.520;2023-05-17T06:49:54;9.80;;;3.53;;
76631;SDS011;65526;48.578;-4.520;2023-05-17T06:52:21;13.05;;;3.53;;
76631;SDS011;65526;48.578;-4.520;2023-05-17T06:54:47;8.98;;;3.85;;
76631;SDS011;65526;48.578;-4.520;2023-05-17T06:57:14;12.18;;;4.20;;
76631;SDS011;65526;48.578;-4.520;2023-05-17T06:59:40;13.65;;;4.90;;
76631;SDS011;65526;48.578;-4.520;2023-05-17T07:02:06;13.30;;;4.88;;
76631;SDS011;65526;48.578;-4.520;2023-05-17T07:04:33;9.25;;;3.65;;
76631;SDS011;65526;48.578;-4.520;2023-05-17T07:06:59;11.70;;;4.78;;
76631;SDS011;65526;48.578;-4.520;2023-05-17T07:09:26;10.40;;;3.45;;
76631;SDS011;65526;48.578;-4.520;2023-05-17T07:11:52;12.20;;;5.40;;
76631;SDS011;65526;48.578;-4.520;2023-05-17T07:14:18;7.72;;;3.10;;
76631;SDS011;65526;48.578;-4.520;2023-05-17T07:16:45;10.80;;;3.78;;
76631;SDS011;65526;48.578;-4.520;2023-05-17T07:19:12;13.32;;;3.92;;
76631;SDS011;65526;48.578;-4.520;2023-05-17T07:21:39;9.82;;;3.70;;
76631;SDS011;65526;48.578;-4.520;2023-05-17T07:24:06;14.38;;;3.92;;
76631;SDS011;65526;48.578;-4.520;2023-05-17T07:26:34;11.35;;;4.03;;
76631;SDS011;65526;48.578;-4.520;2023-05-17T07:29:00;14.05;;;4.35;;
76631;SDS011;65526;48.578;-4.520;2023-05-17T07:31:26;7.88;;;3.42;;
76631;SDS011;65526;48.578;-4.520;2023-05-17T07:33:53;9.27;;;3.90;;
76631;SDS011;65526;48.578;-4.520;2023-05-17T07:36:19;9.18;;;3.05;;
76631;SDS011;65526;48.578;-4.520;2023-05-17T07:38:45;10.52;;;3.80;;
76631;SDS011;65526;48.578;-4.520;2023-05-17T07:41:12;17.52;;;4.28;;
76631;SDS011;65526;48.578;-4.520;2023-05-17T07:46:07;9.25;;;3.38;;
76631;SDS011;65526;48.578;-4.520;2023-05-17T07:48:34;9.45;;;3.35;;
76631;SDS011;65526;48.578;-4.520;2023-05-17T07:51:01;10.80;;;3.78;;
76631;SDS011;65526;48.578;-4.520;2023-05-17T07:53:27;16.35;;;3.75;;
76631;SDS011;65526;48.578;-4.520;2023-05-17T07:55:54;8.95;;;3.20;;
76631;SDS011;65526;48.578;-4.520;2023-05-17T07:58:20;9.80;;;3.60;;
76631;SDS011;65526;48.578;-4.520;2023-05-17T08:00:46;12.48;;;3.35;;
76631;SDS011;65526;48.578;-4.520;2023-05-17T08:03:14;11.43;;;3.85;;
76631;SDS011;65526;48.578;-4.520;2023-05-17T08:05:40;9.48;;;3.35;;
76631;SDS011;65526;48.578;-4.520;2023-05-17T08:08:06;13.48;;;3.72;;
76631;SDS011;65526;48.578;-4.520;2023-05-17T08:10:33;16.33;;;4.10;;
76631;SDS011;65526;48.578;-4.520;2023-05-17T08:13:01;13.88;;;3.72;;
76631;SDS011;65526;48.578;-4.520;2023-05-17T08:15:28;7.72;;;3.47;;
76631;SDS011;65526;48.578;-4.520;2023-05-17T08:17:54;6.05;;;3.28;;
76631;SDS011;65526;48.578;-4.520;2023-05-17T08:20:21;8.95;;;3.08;;
76631;SDS011;65526;48.578;-4.520;2023-05-17T08:22:47;9.55;;;3.60;;
76631;SDS011;65526;48.578;-4.520;2023-05-17T08:25:13;8.05;;;3.20;;
76631;SDS011;65526;48.578;-4.520;2023-05-17T08:27:40;10.40;;;3.53;;
76631;SDS011;65526;48.578;-4.520;2023-05-17T08:30:06;12.70;;;3.67;;
76631;SDS011;65526;48.578;-4.520;2023-05-17T08:32:33;8.52;;;3.33;;
76631;SDS011;65526;48.578;-4.520;2023-05-17T08:34:59;7.72;;;3.10;;
76631;SDS011;65526;48.578;-4.520;2023-05-17T08:37:26;5.78;;;3.33;;
76631;SDS011;65526;48.578;-4.520;2023-05-17T08:39:52;9.05;;;3.75;;
76631;SDS011;65526;48.578;-4.520;2023-05-17T08:42:20;10.35;;;4.10;;
76631;SDS011;65526;48.578;-4.520;2023-05-17T08:44:47;11.23;;;3.45;;
76631;SDS011;65526;48.578;-4.520;2023-05-17T08:47:14;10.13;;;4.10;;
76631;SDS011;65526;48.578;-4.520;2023-05-17T08:49:53;10.98;;;3.60;;
76631;SDS011;65526;48.578;-4.520;2023-05-17T08:52:20;8.48;;;3.47;;
76631;SDS011;65526;48.578;-4.520;2023-05-17T08:54:47;11.10;;;3.58;;
76631;SDS011;65526;48.578;-4.520;2023-05-17T08:57:14;11.32;;;3.83;;
76631;SDS011;65526;48.578;-4.520;2023-05-17T09:02:10;12.50;;;3.70;;
76631;SDS011;65526;48.578;-4.520;2023-05-17T09:04:38;9.75;;;3.25;;
76631;SDS011;65526;48.578;-4.520;2023-05-17T09:07:05;9.52;;;3.50;;
76631;SDS011;65526;48.578;-4.520;2023-05-17T09:09:32;8.20;;;3.13;;
76631;SDS011;65526;48.578;-4.520;2023-05-17T09:11:58;10.45;;;3.22;;
76631;SDS011;65526;48.578;-4.520;2023-05-17T09:14:31;11.23;;;3.65;;
76631;SDS011;65526;48.578;-4.520;2023-05-17T09:16:59;8.82;;;3.75;;
76631;SDS011;65526;48.578;-4.520;2023-05-17T09:19:26;10.77;;;3.47;;
76631;SDS011;65526;48.578;-4.520;2023-05-17T09:21:53;16.55;;;4.15;;
76631;SDS011;65526;48.578;-4.520;2023-05-17T09:24:26;8.18;;;3.40;;
76631;SDS011;65526;48.578;-4.520;2023-05-17T09:26:59;9.13;;;3.40;;
76631;SDS011;65526;48.578;-4.520;2023-05-17T09:29:29;8.82;;;3.67;;
76631;SDS011;65526;48.578;-4.520;2023-05-17T09:32:10;10.57;;;3.70;;
76631;SDS011;65526;48.578;-4.520;2023-05-17T09:34:40;11.45;;;3.63;;
76631;SDS011;65526;48.578;-4.520;2023-05-17T09:37:13;7.93;;;3.22;;
76631;SDS011;65526;48.578;-4.520;2023-05-17T09:39:45;9.88;;;3.53;;
76631;SDS011;65526;48.578;-4.520;2023-05-17T09:42:12;7.45;;;3.25;;
76631;SDS011;65526;48.578;-4.520;2023-05-17T09:44:46;7.75;;;3.30;;
76631;SDS011;65526;48.578;-4.520;2023-05-17T09:47:21;9.73;;;3.17;;
76631;SDS011;65526;48.578;-4.520;2023-05-17T09:49:48;7.22;;;3.05;;
76631;SDS011;65526;48.578;-4.520;2023-05-17T09:52:16;10.20;;;3.17;;
76631;SDS011;65526;48.578;-4.520;2023-05-17T09:54:54;7.40;;;2.92;;
76631;SDS011;65526;48.578;-4.520;2023-05-17T09:57:22;11.70;;;4.10;;
76631;SDS011;65526;48.578;-4.520;2023-05-17T09:59:53;10.60;;;3.30;;
76631;SDS011;65526;48.578;-4.520;2023-05-17T10:02:25;7.82;;;3.53;;
76631;SDS011;65526;48.578;-4.520;2023-05-17T10:04:54;10.27;;;3.25;;
76631;SDS011;65526;48.578;-4.520;2023-05-17T10:09:50;5.85;;;3.33;;
76631;SDS011;65526;48.578;-4.520;2023-05-17T10:12:20;9.20;;;3.08;;
76631;SDS011;65526;48.578;-4.520;2023-05-17T10:14:48;10.38;;;4.10;;
76631;SDS011;65526;48.578;-4.520;2023-05-17T10:17:15;9.32;;;3.45;;
76631;SDS011;65526;48.578;-4.520;2023-05-17T10:19:44;12.40;;;3.42;;
76631;SDS011;65526;48.578;-4.520;2023-05-17T10:22:11;8.50;;;3.67;;
76631;SDS011;65526;48.578;-4.520;2023-05-17T10:24:38;11.00;;;3.75;;
76631;SDS011;65526;48.578;-4.520;2023-05-17T10:27:05;8.70;;;3.53;;
76631;SDS011;65526;48.578;-4.520;2023-05-17T10:29:35;7.07;;;3.45;;
76631;SDS011;65526;48.578;-4.520;2023-05-17T10:32:04;10.98;;;3.42;;
76631;SDS011;65526;48.578;-4.520;2023-05-17T10:34:33;8.30;;;3.42;;
76631;SDS011;65526;48.578;-4.520;2023-05-17T10:37:02;12.73;;;3.53;;
76631;SDS011;65526;48.578;-4.520;2023-05-17T10:39:30;10.02;;;3.35;;
76631;SDS011;65526;48.578;-4.520;2023-05-17T10:41:59;10.00;;;3.00;;
76631;SDS011;65526;48.578;-4.520;2023-05-17T10:44:31;13.10;;;3.85;;
76631;SDS011;65526;48.578;-4.520;2023-05-17T10:46:58;6.28;;;3.20;;
76631;SDS011;65526;48.578;-4.520;2023-05-17T10:49:28;8.18;;;3.10;;
76631;SDS011;65526;48.578;-4.520;2023-05-17T10:51:57;9.15;;;3.33;;
76631;SDS011;65526;48.578;-4.520;2023-05-17T10:54:34;10.10;;;3.13;;
76631;SDS011;65526;48.578;-4.520;2023-05-17T10:57:04;8.98;;;3.47;;
76631;SDS011;65526;48.578;-4.520;2023-05-17T10:59:33;9.27;;;3.00;;
76631;SDS011;65526;48.578;-4.520;2023-05-17T11:02:04;9.00;;;3.10;;
76631;SDS011;65526;48.578;-4.520;2023-05-17T11:04:36;9.02;;;3.40;;
76631;SDS011;65526;48.578;-4.520;2023-05-17T11:12:34;11.13;;;3.55;;
76631;SDS011;65526;48.578;-4.520;2023-05-17T11:15:11;11.23;;;3.47;;
76631;SDS011;65526;48.578;-4.520;2023-05-17T11:22:41;7.22;;;3.53;;
76631;SDS011;65526;48.578;-4.520;2023-05-17T11:25:09;7.28;;;2.90;;
76631;SDS011;65526;48.578;-4.520;2023-05-17T11:27:47;9.32;;;2.90;;
76631;SDS011;65526;48.578;-4.520;2023-05-17T11:30:15;11.02;;;3.00;;
76631;SDS011;65526;48.578;-4.520;2023-05-17T11:32:48;7.20;;;2.83;;
76631;SDS011;65526;48.578;-4.520;2023-05-17T11:35:18;8.60;;;2.80;;
76631;SDS011;65526;48.578;-4.520;2023-05-17T11:37:51;7.30;;;2.85;;
76631;SDS011;65526;48.578;-4.520;2023-05-17T11:40:25;10.45;;;3.50;;
76631;SDS011;65526;48.578;-4.520;2023-05-17T11:45:56;9.38;;;3.50;;
76631;SDS011;65526;48.578;-4.520;2023-05-17T11:48:26;10.48;;;3.85;;
76631;SDS011;65526;48.578;-4.520;2023-05-17T11:50:55;9.43;;;4.03;;
76631;SDS011;65526;48.578;-4.520;2023-05-17T11:53:23;9.68;;;3.65;;
76631;SDS011;65526;48.578;-4.520;2023-05-17T11:55:51;11.52;;;3.58;;
76631;SDS011;65526;48.578;-4.520;2023-05-17T11:58:24;12.13;;;4.60;;
76631;SDS011;65526;48.578;-4.520;2023-05-17T12:00:56;9.15;;;3.50;;
76631;SDS011;65526;48.578;-4.520;2023-05-17T12:03:24;8.50;;;3.45;;
76631;SDS011;65526;48.578;-4.520;2023-05-17T12:06:15;11.95;;;4.05;;
76631;SDS011;65526;48.578;-4.520;2023-05-17T12:08:43;10.80;;;3.50;;
76631;SDS011;65526;48.578;-4.520;2023-05-17T12:11:14;9.02;;;3.42;;
76631;SDS011;65526;48.578;-4.520;2023-05-17T12:13:42;9.07;;;3.13;;
76631;SDS011;65526;48.578;-4.520;2023-05-17T12:16:12;8.45;;;3.28;;
76631;SDS011;65526;48.578;-4.520;2023-05-17T12:18:41;14.90;;;3.75;;
76631;SDS011;65526;48.578;-4.520;2023-05-17T12:21:11;9.13;;;3.40;;
76631;SDS011;65526;48.578;-4.520;2023-05-17T12:23:40;8.05;;;3.10;;
76631;SDS011;65526;48.578;-4.520;2023-05-17T12:26:12;5.47;;;2.17;;
76631;SDS011;65526;48.578;-4.520;2023-05-17T12:28:44;5.88;;;3.10;;
76631;SDS011;65526;48.578;-4.520;2023-05-17T12:31:18;11.13;;;3.05;;
76631;SDS011;65526;48.578;-4.520;2023-05-17T12:33:47;6.10;;;3.03;;
76631;SDS011;65526;48.578;-4.520;2023-05-17T12:36:15;7.65;;;3.05;;
76631;SDS011;65526;48.578;-4.520;2023-05-17T12:38:43;9.27;;;3.10;;
76631;SDS011;65526;48.578;-4.520;2023-05-17T12:41:13;9.02;;;3.25;;
76631;SDS011;65526;48.578;-4.520;2023-05-17T12:43:42;9.70;;;3.10;;
76631;SDS011;65526;48.578;-4.520;2023-05-17T12:46:11;6.13;;;2.42;;
76631;SDS011;65526;48.578;-4.520;2023-05-17T12:48:42;6.80;;;2.95;;
76631;SDS011;65526;48.578;-4.520;2023-05-17T12:51:09;9.30;;;3.45;;
76631;SDS011;65526;48.578;-4.520;2023-05-17T12:53:41;6.50;;;3.25;;
76631;SDS011;65526;48.578;-4.520;2023-05-17T12:56:08;12.20;;;3.85;;
76631;SDS011;65526;48.578;-4.520;2023-05-17T13:01:41;10.52;;;3.17;;
76631;SDS011;65526;48.578;-4.520;2023-05-17T13:04:09;7.97;;;3.03;;
76631;SDS011;65526;48.578;-4.520;2023-05-17T13:06:57;7.65;;;3.05;;
76631;SDS011;65526;48.578;-4.520;2023-05-17T13:09:24;6.20;;;2.78;;
76631;SDS011;65526;48.578;-4.520;2023-05-17T13:11:54;7.07;;;3.55;;
76631;SDS011;65526;48.578;-4.520;2023-05-17T13:14:34;10.00;;;2.95;;
76631;SDS011;65526;48.578;-4.520;2023-05-17T13:17:06;12.40;;;3.30;;
76631;SDS011;65526;48.578;-4.520;2023-05-17T13:19:34;14.45;;;3.45;;
76631;SDS011;65526;48.578;-4.520;2023-05-17T13:22:05;10.10;;;2.83;;
76631;SDS011;65526;48.578;-4.520;2023-05-17T13:24:33;7.03;;;3.10;;
76631;SDS011;65526;48.578;-4.520;2023-05-17T13:27:01;7.43;;;3.45;;
76631;SDS011;65526;48.578;-4.520;2023-05-17T13:29:28;12.15;;;3.90;;
76631;SDS011;65526;48.578;-4.520;2023-05-17T13:31:57;11.45;;;3.90;;
76631;SDS011;65526;48.578;-4.520;2023-05-17T13:34:23;8.38;;;3.22;;
76631;SDS011;65526;48.578;-4.520;2023-05-17T13:36:49;11.02;;;3.55;;
76631;SDS011;65526;48.578;-4.520;2023-05-17T13:39:16;12.07;;;3.50;;
76631;SDS011;65526;48.578;-4.520;2023-05-17T13:41:43;10.02;;;3.60;;
76631;SDS011;65526;48.578;-4.520;2023-05-17T13:44:09;11.13;;;3.70;;
76631;SDS011;65526;48.578;-4.520;2023-05-17T13:46:37;9.80;;;3.35;;
76631;SDS011;65526;48.578;-4.520;2023-05-17T13:49:05;6.10;;;3.05;;
76631;SDS011;65526;48.578;-4.520;2023-05-17T13:51:33;9.88;;;3.55;;
76631;SDS011;65526;48.578;-4.520;2023-05-17T13:53:59;9.00;;;3.08;;
76631;SDS011;65526;48.578;-4.520;2023-05-17T13:56:26;9.88;;;3.47;;
76631;SDS011;65526;48.578;-4.520;2023-05-17T13:58:52;8.40;;;3.80;;
76631;SDS011;65526;48.578;-4.520;2023-05-17T14:01:20;10.77;;;3.63;;
76631;SDS011;65526;48.578;-4.520;2023-05-17T14:03:47;12.75;;;4.32;;
76631;SDS011;65526;48.578;-4.520;2023-05-17T14:06:14;11.00;;;3.92;;
76631;SDS011;65526;48.578;-4.520;2023-05-17T14:08:41;14.07;;;3.92;;
76631;SDS011;65526;48.578;-4.520;2023-05-17T14:11:07;12.30;;;3.72;;
76631;SDS011;65526;48.578;-4.520;2023-05-17T14:13:34;8.90;;;3.70;;
76631;SDS011;65526;48.578;-4.520;2023-05-17T14:16:01;11.63;;;4.13;;
76631;SDS011;65526;48.578;-4.520;2023-05-17T14:18:29;10.00;;;3.80;;
76631;SDS011;65526;48.578;-4.520;2023-05-17T14:20:57;10.82;;;3.40;;
76631;SDS011;65526;48.578;-4.520;2023-05-17T14:25:53;11.07;;;3.70;;
76631;SDS011;65526;48.578;-4.520;2023-05-17T14:28:22;9.85;;;4.22;;
76631;SDS011;65526;48.578;-4.520;2023-05-17T14:30:48;10.68;;;3.47;;
76631;SDS011;65526;48.578;-4.520;2023-05-17T14:33:15;16.70;;;4.70;;
76631;SDS011;65526;48.578;-4.520;2023-05-17T14:35:41;10.82;;;3.83;;
76631;SDS011;65526;48.578;-4.520;2023-05-17T14:38:08;16.92;;;4.15;;
76631;SDS011;65526;48.578;-4.520;2023-05-17T14:40:34;8.07;;;3.80;;
76631;SDS011;65526;48.578;-4.520;2023-05-17T14:43:01;12.70;;;4.55;;
76631;SDS011;65526;48.578;-4.520;2023-05-17T14:45:27;14.80;;;4.13;;
76631;SDS011;65526;48.578;-4.520;2023-05-17T14:47:53;10.98;;;4.38;;
76631;SDS011;65526;48.578;-4.520;2023-05-17T14:50:20;12.15;;;3.92;;
76631;SDS011;65526;48.578;-4.520;2023-05-17T14:52:46;11.98;;;5.07;;
76631;SDS011;65526;48.578;-4.520;2023-05-17T14:55:13;14.07;;;4.75;;
76631;SDS011;65526;48.578;-4.520;2023-05-17T14:57:41;16.08;;;4.30;;
76631;SDS011;65526;48.578;-4.520;2023-05-17T15:00:08;15.05;;;4.32;;
76631;SDS011;65526;48.578;-4.520;2023-05-17T15:02:36;11.27;;;4.60;;
76631;SDS011;65526;48.578;-4.520;2023-05-17T15:05:03;12.00;;;4.70;;
76631;SDS011;65526;48.578;-4.520;2023-05-17T15:07:32;14.40;;;4.85;;
76631;SDS011;65526;48.578;-4.520;2023-05-17T15:10:02;7.93;;;3.88;;
76631;SDS011;65526;48.578;-4.520;2023-05-17T15:12:31;15.10;;;4.18;;
76631;SDS011;65526;48.578;-4.520;2023-05-17T15:14:57;11.10;;;4.10;;